createdAt,value
2022-12-15T00:01:01.183Z,88.90
2022-12-15T00:04:23.077Z,84.30
2022-12-15T00:07:44.692Z,75.40
2022-12-15T00:11:06.116Z,82.00
2022-12-15T00:14:27.666Z,82.90
2022-12-15T00:17:49.252Z,79.30
2022-12-15T00:21:10.840Z,105.20
2022-12-15T00:24:32.108Z,94.70
2022-12-15T00:27:53.801Z,96.00
2022-12-15T00:31:17.744Z,98.30
2022-12-15T00:34:39.403Z,89.20
2022-12-15T00:38:01.268Z,90.80
2022-12-15T00:41:04.594Z,84.60
2022-12-15T00:44:07.337Z,68.00
2022-12-15T00:47:10.066Z,90.80
2022-12-15T00:50:31.622Z,106.60
2022-12-15T00:53:53.435Z,98.20
2022-12-15T00:57:15.205Z,88.30
2022-12-15T01:00:36.489Z,83.80
2022-12-15T01:03:58.099Z,91.60
2022-12-15T01:07:19.428Z,91.30
2022-12-15T01:10:40.987Z,101.90
2022-12-15T01:14:02.574Z,101.10
2022-12-15T01:17:24.173Z,85.90
2022-12-15T01:20:26.916Z,90.20
2022-12-15T01:23:32.093Z,89.00
2022-12-15T01:26:35.095Z,77.30
2022-12-15T01:29:37.892Z,76.20
2022-12-15T01:32:45.803Z,77.20
2022-12-15T01:36:00.395Z,61.80
2022-12-15T01:39:03.418Z,63.90
2022-12-15T01:42:06.152Z,22.90
2022-12-15T01:45:24.460Z,75.50
2022-12-15T01:48:43.558Z,61.80
2022-12-15T01:51:55.628Z,31.10
2022-12-15T01:54:58.624Z,53.90
2022-12-15T01:58:06.816Z,30.40
2022-12-15T02:01:10.628Z,49.80
2022-12-15T02:04:14.994Z,39.70
2022-12-15T02:07:19.084Z,44.20
2022-12-15T02:10:27.913Z,31.40
2022-12-15T02:14:02.616Z,54.90
2022-12-15T02:17:27.249Z,49.50
2022-12-15T02:24:10.796Z,51.20
2022-12-15T02:27:25.506Z,44.10
2022-12-15T02:31:14.226Z,38.00
2022-12-15T02:34:26.456Z,41.90
2022-12-15T02:37:33.185Z,28.60
2022-12-15T02:43:39.782Z,57.20
2022-12-15T02:47:14.638Z,50.40
2022-12-15T02:50:59.451Z,37.80
2022-12-15T02:54:33.092Z,33.30
2022-12-15T02:58:13.316Z,25.10
2022-12-15T03:01:25.059Z,36.20
2022-12-15T03:04:28.243Z,47.60
2022-12-15T03:07:31.109Z,46.50
2022-12-15T03:10:34.278Z,48.60
2022-12-15T03:13:37.105Z,28.50
2022-12-15T03:16:39.878Z,41.90
2022-12-15T03:19:42.832Z,48.70
2022-12-15T03:22:45.670Z,52.50
2022-12-15T03:25:49.906Z,54.50
2022-12-15T03:28:52.949Z,58.60
2022-12-15T03:31:55.836Z,43.00
2022-12-15T03:34:58.704Z,51.70
2022-12-15T03:38:01.712Z,40.40
2022-12-15T03:41:04.468Z,49.30
2022-12-15T03:44:07.471Z,48.00
2022-12-15T03:47:10.200Z,61.50
2022-12-15T03:50:15.105Z,53.60
2022-12-15T03:53:17.844Z,55.40
2022-12-15T03:56:20.936Z,49.40
2022-12-15T03:59:23.808Z,45.20
2022-12-15T04:02:26.720Z,44.50
2022-12-15T04:05:33.134Z,23.10
2022-12-15T04:08:35.934Z,41.60
2022-12-15T04:11:38.729Z,44.40
2022-12-15T04:14:42.708Z,37.20
2022-12-15T04:17:45.680Z,47.00
2022-12-15T04:20:50.173Z,41.70
2022-12-15T04:24:11.618Z,31.80
2022-12-15T04:27:33.087Z,21.60
2022-12-15T04:30:55.046Z,34.90
2022-12-15T04:34:23.060Z,32.00
2022-12-15T04:37:44.680Z,27.30
2022-12-15T04:41:06.223Z,43.00
2022-12-15T04:44:29.716Z,40.20
2022-12-15T04:47:51.134Z,33.20
2022-12-15T04:51:13.173Z,21.90
2022-12-15T04:54:34.525Z,32.10
2022-12-15T04:57:56.161Z,35.60
2022-12-15T05:01:17.759Z,42.80
2022-12-15T05:04:39.628Z,41.10
2022-12-15T05:08:01.305Z,47.00
2022-12-15T05:11:22.975Z,35.40
2022-12-15T05:14:44.680Z,37.00
2022-12-15T05:18:11.700Z,39.40
2022-12-15T05:21:33.523Z,39.40
2022-12-15T05:24:54.858Z,46.70
2022-12-15T05:28:16.455Z,40.10
2022-12-15T05:31:38.005Z,42.30
2022-12-15T05:34:40.916Z,38.80
2022-12-15T05:37:43.786Z,45.40
2022-12-15T05:40:46.531Z,41.00
2022-12-15T05:43:49.649Z,35.70
2022-12-15T05:46:52.591Z,46.90
2022-12-15T05:49:55.399Z,50.80
2022-12-15T05:52:59.909Z,42.60
2022-12-15T05:56:07.612Z,54.80
2022-12-15T05:59:11.330Z,57.80
2022-12-15T06:02:14.268Z,46.00
2022-12-15T06:05:17.796Z,36.30
2022-12-15T06:08:20.514Z,43.20
2022-12-15T06:11:23.292Z,43.30
2022-12-15T06:14:26.070Z,38.30
2022-12-15T06:17:28.914Z,9.60
2022-12-15T06:20:31.734Z,50.70
2022-12-15T06:23:36.563Z,46.30
2022-12-15T06:26:40.338Z,56.90
2022-12-15T06:29:43.120Z,56.90
2022-12-15T06:32:45.940Z,55.40
2022-12-15T06:35:52.666Z,49.20
2022-12-15T06:38:59.457Z,51.90
2022-12-15T06:42:02.365Z,52.50
2022-12-15T06:45:05.502Z,46.50
2022-12-15T06:48:08.425Z,46.60
2022-12-15T06:51:16.777Z,40.00
2022-12-15T06:54:20.496Z,31.00
2022-12-15T06:57:23.392Z,39.20
2022-12-15T07:00:28.027Z,49.80
2022-12-15T07:03:31.402Z,46.20
2022-12-15T07:06:36.903Z,49.90
2022-12-15T07:09:40.118Z,46.00
2022-12-15T07:12:42.966Z,51.00
2022-12-15T07:15:45.932Z,50.10
2022-12-15T07:18:49.047Z,53.00
2022-12-15T07:21:53.017Z,36.70
2022-12-15T07:24:55.847Z,49.40
2022-12-15T07:27:58.608Z,48.60
2022-12-15T07:31:07.686Z,53.70
2022-12-15T07:34:10.560Z,53.60
2022-12-15T07:37:13.426Z,49.30
2022-12-15T07:40:16.786Z,55.50
2022-12-15T07:43:21.981Z,51.50
2022-12-15T07:46:26.201Z,49.80
2022-12-15T07:49:29.069Z,54.00
2022-12-15T07:52:31.916Z,41.60
2022-12-15T07:56:05.078Z,56.60
2022-12-15T07:58:59.790Z,52.90
2022-12-15T08:02:06.680Z,57.90
2022-12-15T08:05:10.824Z,56.90
2022-12-15T08:08:15.440Z,60.30
2022-12-15T08:11:21.363Z,68.90
2022-12-15T08:14:24.997Z,69.40
2022-12-15T08:17:28.072Z,65.50
2022-12-15T08:20:31.416Z,59.00
2022-12-15T08:23:35.007Z,60.20
2022-12-15T08:26:38.788Z,53.70
2022-12-15T08:29:51.058Z,51.60
2022-12-15T08:32:55.103Z,53.20
2022-12-15T08:36:01.749Z,49.60
2022-12-15T08:39:04.676Z,46.10
2022-12-15T08:42:07.564Z,41.10
2022-12-15T08:45:12.492Z,44.20
2022-12-15T08:48:15.848Z,45.60
2022-12-15T08:51:19.311Z,44.20
2022-12-15T08:54:22.204Z,38.70
2022-12-15T08:57:25.172Z,39.80
2022-12-15T09:00:28.049Z,45.90
2022-12-15T09:03:31.432Z,46.30
2022-12-15T09:06:36.943Z,47.50
2022-12-15T09:09:39.765Z,46.40
2022-12-15T09:12:42.624Z,44.70
2022-12-15T09:16:09.021Z,29.70
2022-12-15T09:19:09.668Z,37.40
2022-12-15T09:22:12.591Z,30.70
2022-12-15T09:25:15.488Z,49.40
2022-12-15T09:28:18.383Z,46.40
2022-12-15T09:31:24.394Z,36.60
2022-12-15T09:34:27.495Z,16.60
2022-12-15T09:37:31.623Z,36.60
2022-12-15T09:40:34.494Z,40.20
2022-12-15T09:43:46.712Z,50.10
2022-12-15T09:46:53.394Z,49.80
2022-12-15T09:49:58.651Z,41.90
2022-12-15T09:53:03.269Z,44.60
2022-12-15T09:56:18.220Z,57.90
2022-12-15T09:59:39.145Z,59.30
2022-12-15T10:03:13.576Z,65.90
2022-12-15T10:06:32.745Z,44.70
2022-12-15T10:09:37.396Z,52.60
2022-12-15T10:12:53.132Z,49.30
2022-12-15T10:16:09.085Z,47.80
2022-12-15T10:19:14.348Z,48.90
2022-12-15T10:22:24.174Z,46.70
2022-12-15T10:25:30.983Z,49.00
2022-12-15T10:29:16.803Z,49.20
2022-12-15T10:32:30.145Z,47.30
2022-12-15T10:35:36.324Z,56.60
2022-12-15T10:38:45.434Z,60.90
2022-12-15T10:42:16.356Z,56.90
2022-12-15T10:45:40.811Z,59.20
2022-12-15T10:48:48.729Z,61.30
2022-12-15T10:51:57.385Z,55.30
2022-12-15T10:55:00.576Z,69.60
2022-12-15T10:58:14.466Z,72.40
2022-12-15T11:01:24.386Z,63.90
2022-12-15T11:04:32.487Z,64.00
2022-12-15T11:07:51.843Z,65.40
2022-12-15T11:11:13.617Z,67.80
2022-12-15T11:14:25.538Z,66.00
2022-12-15T11:17:41.031Z,59.20
2022-12-15T11:20:50.886Z,60.80
2022-12-15T11:23:59.800Z,61.70
2022-12-15T11:27:28.704Z,74.60
2022-12-15T11:30:42.735Z,65.30
2022-12-15T11:33:45.780Z,67.10
2022-12-15T11:37:07.783Z,61.30
2022-12-15T11:40:50.552Z,63.80
2022-12-15T11:44:04.323Z,80.60
2022-12-15T11:47:29.461Z,69.80
2022-12-15T11:51:01.101Z,71.10
2022-12-15T11:54:39.638Z,69.50
2022-12-15T11:57:45.267Z,61.10
2022-12-15T12:01:05.101Z,51.00
2022-12-15T12:04:35.308Z,59.10
2022-12-15T12:10:58.398Z,72.20
2022-12-15T12:14:50.722Z,79.40
2022-12-15T12:17:58.266Z,81.10
2022-12-15T12:21:07.852Z,73.80
2022-12-15T12:24:43.924Z,72.60
2022-12-15T12:28:00.718Z,59.60
2022-12-15T12:31:05.704Z,72.60
2022-12-15T12:34:14.702Z,50.50
2022-12-15T12:37:31.437Z,63.30
2022-12-15T12:40:40.464Z,73.30
2022-12-15T12:43:51.115Z,80.10
2022-12-15T12:46:57.446Z,65.00
2022-12-15T12:53:32.411Z,77.10
2022-12-15T12:56:50.383Z,90.20
2022-12-15T13:00:09.035Z,30.30
2022-12-15T13:03:11.961Z,97.90
2022-12-15T13:06:40.998Z,85.10
2022-12-15T13:09:44.376Z,82.90
2022-12-15T13:12:53.546Z,89.30
2022-12-15T13:16:19.339Z,86.10
2022-12-15T13:20:00.860Z,87.10
2022-12-15T13:23:22.249Z,83.90
2022-12-15T13:26:31.116Z,85.70
2022-12-15T13:29:35.237Z,88.90
2022-12-15T13:32:47.020Z,51.20
2022-12-15T13:35:51.703Z,93.00
2022-12-15T13:38:55.938Z,95.00
2022-12-15T13:42:32.011Z,99.40
2022-12-15T13:45:50.591Z,105.70
2022-12-15T13:49:10.467Z,114.70
2022-12-15T13:56:07.051Z,106.80
2022-12-15T13:59:38.794Z,93.80
2022-12-15T14:02:41.715Z,95.50
2022-12-15T14:05:56.302Z,98.80
2022-12-15T14:09:00.168Z,98.40
2022-12-15T14:12:06.136Z,107.80
2022-12-15T14:15:16.909Z,96.90
2022-12-15T14:18:45.908Z,98.20
2022-12-15T14:21:56.410Z,102.80
2022-12-15T14:25:13.650Z,112.90
2022-12-15T14:28:30.504Z,109.10
2022-12-15T14:31:33.900Z,106.80
2022-12-15T14:34:41.977Z,109.30
2022-12-15T14:37:45.824Z,105.80
2022-12-15T14:40:51.380Z,115.50
2022-12-15T14:44:37.397Z,118.70
2022-12-15T14:47:31.891Z,113.20
2022-12-15T14:50:36.441Z,106.10
2022-12-15T14:53:42.815Z,104.40
2022-12-15T14:56:45.597Z,100.60
2022-12-15T14:59:48.844Z,90.30
2022-12-15T15:03:09.591Z,140.80
2022-12-15T15:06:49.050Z,103.60
2022-12-15T15:09:55.525Z,85.60
2022-12-15T15:12:59.248Z,101.20
2022-12-15T15:16:07.111Z,90.70
2022-12-15T15:19:22.667Z,87.00
2022-12-15T15:22:30.615Z,91.60
2022-12-15T15:25:39.242Z,90.50
2022-12-15T15:28:44.747Z,93.40
2022-12-15T15:31:47.600Z,91.60
2022-12-15T15:34:51.266Z,81.70
2022-12-15T15:37:59.257Z,92.20
2022-12-15T15:41:20.710Z,118.90
2022-12-15T15:44:23.556Z,99.90
2022-12-15T15:47:27.358Z,103.60
2022-12-15T15:50:30.399Z,105.30
2022-12-15T15:53:34.886Z,96.30
2022-12-15T15:56:38.022Z,117.70
2022-12-15T15:59:42.482Z,108.60
2022-12-15T16:02:45.586Z,95.70
2022-12-15T16:05:48.700Z,120.80
2022-12-15T16:08:53.919Z,107.40
2022-12-15T16:11:58.007Z,110.50
2022-12-15T16:15:00.950Z,129.90
2022-12-15T16:18:04.264Z,127.40
2022-12-15T16:21:14.019Z,98.10
2022-12-15T16:24:19.229Z,115.90
2022-12-15T16:27:22.893Z,94.20
2022-12-15T16:30:27.722Z,99.30
2022-12-15T16:33:30.520Z,102.40
2022-12-15T16:36:33.612Z,87.20
2022-12-15T16:39:36.601Z,81.70
2022-12-15T16:42:39.393Z,92.20
2022-12-15T16:45:47.817Z,89.10
2022-12-15T16:48:51.818Z,76.80
2022-12-15T16:51:55.696Z,83.20
2022-12-15T16:54:58.633Z,81.20
2022-12-15T16:58:07.575Z,79.40
2022-12-15T17:01:11.674Z,71.80
2022-12-15T17:04:16.701Z,81.80
2022-12-15T17:07:20.561Z,98.10
2022-12-15T17:10:26.337Z,88.50
2022-12-15T17:13:45.708Z,92.90
2022-12-15T17:16:48.795Z,99.50
2022-12-15T17:20:27.402Z,85.20
2022-12-15T17:23:18.386Z,95.10
2022-12-15T17:26:29.673Z,93.60
2022-12-15T17:29:33.650Z,84.60
2022-12-15T17:32:36.538Z,91.60
2022-12-15T17:35:39.302Z,97.10
2022-12-15T17:38:42.258Z,105.30
2022-12-15T17:42:02.098Z,195.30
2022-12-15T17:45:17.484Z,113.00
2022-12-15T17:48:20.277Z,87.60
2022-12-15T17:51:23.036Z,88.30
2022-12-15T17:54:25.849Z,76.70
2022-12-15T17:57:31.832Z,77.40
2022-12-15T18:00:34.644Z,78.10
2022-12-15T18:03:38.052Z,91.70
2022-12-15T18:06:43.528Z,86.00
2022-12-15T18:09:46.944Z,97.60
2022-12-15T18:12:50.055Z,86.00
2022-12-15T18:15:53.979Z,94.30
2022-12-15T18:18:56.805Z,83.60
2022-12-15T18:21:59.687Z,91.40
2022-12-15T18:25:02.435Z,94.50
2022-12-15T18:28:15.212Z,106.20
2022-12-15T18:31:23.804Z,110.80
2022-12-15T18:34:26.710Z,109.40
2022-12-15T18:37:29.567Z,111.20
2022-12-15T18:40:32.361Z,112.50
2022-12-15T18:43:35.606Z,112.60
2022-12-15T18:46:40.958Z,90.80
2022-12-15T18:49:47.679Z,106.20
2022-12-15T18:52:58.095Z,112.00
2022-12-15T18:56:02.728Z,74.90
2022-12-15T18:59:10.733Z,100.90
2022-12-15T19:02:13.620Z,93.70
2022-12-15T19:05:32.813Z,68.50
2022-12-15T19:08:38.137Z,99.70
2022-12-15T19:12:01.247Z,103.40
2022-12-15T19:15:06.946Z,100.10
2022-12-15T19:18:36.731Z,63.60
2022-12-15T19:21:48.542Z,22.30
2022-12-15T19:24:57.154Z,55.20
2022-12-15T19:28:01.278Z,93.90
2022-12-15T19:31:04.205Z,85.70
2022-12-15T19:34:07.496Z,88.90
2022-12-15T19:37:32.693Z,37.20
2022-12-15T19:40:37.516Z,98.80
2022-12-15T19:43:40.289Z,89.60
2022-12-15T19:46:44.006Z,94.00
2022-12-15T19:49:46.748Z,106.50
2022-12-15T19:52:52.468Z,109.90
2022-12-15T19:55:58.381Z,96.50
2022-12-15T19:59:01.214Z,113.40
2022-12-15T20:02:04.508Z,89.50
2022-12-15T20:05:07.803Z,43.70
2022-12-15T20:08:17.863Z,102.60
2022-12-15T20:11:25.035Z,67.70
2022-12-15T20:14:28.063Z,87.90
2022-12-15T20:17:30.836Z,81.00
2022-12-15T20:20:33.839Z,87.20
2022-12-15T20:23:57.803Z,72.00
2022-12-15T20:27:00.702Z,95.70
2022-12-15T20:30:03.849Z,95.30
2022-12-15T20:33:06.754Z,100.30
2022-12-15T20:36:14.052Z,101.70
2022-12-15T20:39:26.057Z,98.20
2022-12-15T20:42:28.842Z,90.30
2022-12-15T20:45:31.704Z,97.30
2022-12-15T20:48:36.747Z,95.60
2022-12-15T20:51:39.704Z,95.10
2022-12-15T20:54:42.967Z,95.70
2022-12-15T20:57:45.756Z,104.90
2022-12-15T21:00:49.804Z,116.30
2022-12-15T21:03:57.405Z,107.40
2022-12-15T21:07:00.167Z,99.60
2022-12-15T21:10:03.262Z,93.10
2022-12-15T21:13:15.533Z,103.70
2022-12-15T21:16:21.913Z,110.90
2022-12-15T21:19:25.022Z,103.10
2022-12-15T21:22:29.015Z,98.30
2022-12-15T21:25:31.980Z,92.80
2022-12-15T21:28:35.017Z,95.90
2022-12-15T21:31:37.981Z,97.10
2022-12-15T21:34:41.092Z,93.00
2022-12-15T21:37:47.343Z,96.00
2022-12-15T21:40:56.001Z,95.70
2022-12-15T21:44:02.070Z,108.70
2022-12-15T21:47:25.794Z,98.10
2022-12-15T21:50:28.770Z,97.20
2022-12-15T21:53:31.601Z,94.90
2022-12-15T21:56:34.374Z,91.20
2022-12-15T21:59:37.628Z,93.80
2022-12-15T22:02:40.930Z,85.90
2022-12-15T22:05:43.931Z,89.50
2022-12-15T22:08:47.118Z,91.70
2022-12-15T22:11:56.238Z,92.70
2022-12-15T22:14:59.971Z,93.10
2022-12-15T22:18:02.694Z,88.30
2022-12-15T22:21:07.785Z,90.50
2022-12-15T22:24:10.850Z,102.80
2022-12-15T22:27:20.185Z,97.90
2022-12-15T22:30:25.465Z,90.20
2022-12-15T22:33:28.337Z,92.90
2022-12-15T22:36:31.064Z,104.20
2022-12-15T22:39:34.009Z,98.70
2022-12-15T22:42:39.713Z,93.90
2022-12-15T22:45:42.938Z,97.30
2022-12-15T22:48:49.895Z,98.50
2022-12-15T22:51:53.220Z,95.30
2022-12-15T22:54:58.529Z,90.40
2022-12-15T22:58:07.058Z,101.60
2022-12-15T23:01:10.381Z,103.80
2022-12-15T23:04:13.201Z,97.90
2022-12-15T23:07:15.988Z,97.20
2022-12-15T23:10:38.523Z,90.20
2022-12-15T23:13:41.277Z,94.90
2022-12-15T23:16:46.469Z,98.40
2022-12-15T23:19:49.260Z,104.70
2022-12-15T23:22:52.040Z,96.70
2022-12-15T23:25:55.685Z,97.10
2022-12-15T23:28:58.438Z,101.20
2022-12-15T23:32:01.183Z,92.10
2022-12-15T23:35:05.597Z,90.80
2022-12-15T23:38:08.425Z,85.40
2022-12-15T23:41:16.813Z,86.30
2022-12-15T23:44:19.551Z,84.70
2022-12-15T23:47:22.311Z,91.00
2022-12-15T23:50:25.111Z,93.80
2022-12-15T23:53:27.886Z,98.60
2022-12-15T23:56:30.618Z,106.10
2022-12-15T23:59:33.356Z,111.30
